sensor_id;sensor_type;location;lat;lon;timestamp;temperature;humidity
20141;DHT22;10231;47.702;9.826;2023-01-25T00:02:21;2.00;99.90
20141;DHT22;10231;47.702;9.826;2023-01-25T00:04:46;2.00;99.90
20141;DHT22;10231;47.702;9.826;2023-01-25T00:07:12;1.90;99.90
20141;DHT22;10231;47.702;9.826;2023-01-25T00:09:37;1.90;99.90
20141;DHT22;10231;47.702;9.826;2023-01-25T00:12:03;1.90;99.90
20141;DHT22;10231;47.702;9.826;2023-01-25T00:14:29;2.00;99.90
20141;DHT22;10231;47.702;9.826;2023-01-25T00:16:54;2.00;99.90
20141;DHT22;10231;47.702;9.826;2023-01-25T00:19:20;2.00;99.90
20141;DHT22;10231;47.702;9.826;2023-01-25T00:21:45;2.00;99.90
20141;DHT22;10231;47.702;9.826;2023-01-25T00:24:11;2.00;99.90
20141;DHT22;10231;47.702;9.826;2023-01-25T00:26:38;2.00;99.90
20141;DHT22;10231;47.702;9.826;2023-01-25T00:29:04;2.00;99.90
20141;DHT22;10231;47.702;9.826;2023-01-25T00:36:45;2.00;99.90
20141;DHT22;10231;47.702;9.826;2023-01-25T00:39:13;2.00;99.90
20141;DHT22;10231;47.702;9.826;2023-01-25T00:41:39;1.90;99.90
20141;DHT22;10231;47.702;9.826;2023-01-25T00:44:05;1.90;99.90
20141;DHT22;10231;47.702;9.826;2023-01-25T00:46:31;1.90;99.90
20141;DHT22;10231;47.702;9.826;2023-01-25T00:48:56;1.90;99.90
20141;DHT22;10231;47.702;9.826;2023-01-25T00:51:23;1.90;99.90
20141;DHT22;10231;47.702;9.826;2023-01-25T00:53:49;1.90;99.90
20141;DHT22;10231;47.702;9.826;2023-01-25T00:56:14;1.90;99.90
20141;DHT22;10231;47.702;9.826;2023-01-25T00:58:41;1.90;99.90
20141;DHT22;10231;47.702;9.826;2023-01-25T01:01:06;1.90;99.90
20141;DHT22;10231;47.702;9.826;2023-01-25T01:03:32;1.90;99.90
20141;DHT22;10231;47.702;9.826;2023-01-25T01:06:03;1.90;99.90
20141;DHT22;10231;47.702;9.826;2023-01-25T01:08:32;1.90;99.90
20141;DHT22;10231;47.702;9.826;2023-01-25T01:10:59;1.90;99.90
20141;DHT22;10231;47.702;9.826;2023-01-25T01:13:25;1.90;99.90
20141;DHT22;10231;47.702;9.826;2023-01-25T01:15:51;1.90;99.90
20141;DHT22;10231;47.702;9.826;2023-01-25T01:18:16;1.90;99.90
20141;DHT22;10231;47.702;9.826;2023-01-25T01:20:56;1.90;99.90
20141;DHT22;10231;47.702;9.826;2023-01-25T01:23:21;1.90;99.90
20141;DHT22;10231;47.702;9.826;2023-01-25T01:25:47;1.90;99.90
20141;DHT22;10231;47.702;9.826;2023-01-25T01:28:12;1.90;99.90
20141;DHT22;10231;47.702;9.826;2023-01-25T01:30:38;1.90;99.90
20141;DHT22;10231;47.702;9.826;2023-01-25T01:33:04;1.90;99.90
20141;DHT22;10231;47.702;9.826;2023-01-25T01:35:30;1.90;99.90
20141;DHT22;10231;47.702;9.826;2023-01-25T01:37:56;1.90;99.90
20141;DHT22;10231;47.702;9.826;2023-01-25T01:40:21;1.90;99.90
20141;DHT22;10231;47.702;9.826;2023-01-25T01:43:03;1.90;99.90
20141;DHT22;10231;47.702;9.826;2023-01-25T01:45:48;1.90;99.90
20141;DHT22;10231;47.702;9.826;2023-01-25T01:54:22;1.90;99.90
20141;DHT22;10231;47.702;9.826;2023-01-25T01:57:12;1.90;99.90
20141;DHT22;10231;47.702;9.826;2023-01-25T01:59:55;1.90;99.90
20141;DHT22;10231;47.702;9.826;2023-01-25T02:02:23;1.90;99.90
20141;DHT22;10231;47.702;9.826;2023-01-25T02:04:50;1.90;99.90
20141;DHT22;10231;47.702;9.826;2023-01-25T02:07:30;1.90;99.90
20141;DHT22;10231;47.702;9.826;2023-01-25T02:09:58;1.90;99.90
20141;DHT22;10231;47.702;9.826;2023-01-25T02:12:24;1.90;99.90
20141;DHT22;10231;47.702;9.826;2023-01-25T02:14:52;1.90;99.90
20141;DHT22;10231;47.702;9.826;2023-01-25T02:17:33;1.90;99.90
20141;DHT22;10231;47.702;9.826;2023-01-25T02:20:13;1.90;99.90
20141;DHT22;10231;47.702;9.826;2023-01-25T02:25:22;1.90;99.90
20141;DHT22;10231;47.702;9.826;2023-01-25T02:28:03;1.90;99.90
20141;DHT22;10231;47.702;9.826;2023-01-25T02:30:32;1.90;99.90
20141;DHT22;10231;47.702;9.826;2023-01-25T02:32:58;1.90;99.90
20141;DHT22;10231;47.702;9.826;2023-01-25T02:38:01;1.90;99.90
20141;DHT22;10231;47.702;9.826;2023-01-25T02:40:28;1.90;99.90
20141;DHT22;10231;47.702;9.826;2023-01-25T02:42:55;1.90;99.90
20141;DHT22;10231;47.702;9.826;2023-01-25T02:45:25;1.90;99.90
20141;DHT22;10231;47.702;9.826;2023-01-25T02:47:51;1.90;99.90
20141;DHT22;10231;47.702;9.826;2023-01-25T02:50:17;1.90;99.90
20141;DHT22;10231;47.702;9.826;2023-01-25T02:52:43;1.90;99.90
20141;DHT22;10231;47.702;9.826;2023-01-25T02:55:08;1.90;99.90
20141;DHT22;10231;47.702;9.826;2023-01-25T02:57:34;1.90;99.90
20141;DHT22;10231;47.702;9.826;2023-01-25T02:59:59;1.90;99.90
20141;DHT22;10231;47.702;9.826;2023-01-25T03:02:25;1.90;99.90
20141;DHT22;10231;47.702;9.826;2023-01-25T03:04:50;1.90;99.90
20141;DHT22;10231;47.702;9.826;2023-01-25T03:07:16;1.90;99.90
20141;DHT22;10231;47.702;9.826;2023-01-25T03:09:41;1.90;99.90
20141;DHT22;10231;47.702;9.826;2023-01-25T03:12:07;1.90;99.90
20141;DHT22;10231;47.702;9.826;2023-01-25T03:14:32;1.90;99.90
20141;DHT22;10231;47.702;9.826;2023-01-25T03:16:58;1.90;99.90
20141;DHT22;10231;47.702;9.826;2023-01-25T03:19:24;1.90;99.90
20141;DHT22;10231;47.702;9.826;2023-01-25T03:21:49;1.90;99.90
20141;DHT22;10231;47.702;9.826;2023-01-25T03:24:15;1.90;99.90
20141;DHT22;10231;47.702;9.826;2023-01-25T03:26:41;1.90;99.90
20141;DHT22;10231;47.702;9.826;2023-01-25T03:29:25;1.80;99.90
20141;DHT22;10231;47.702;9.826;2023-01-25T03:31:51;1.90;99.90
20141;DHT22;10231;47.702;9.826;2023-01-25T03:34:16;1.90;99.90
20141;DHT22;10231;47.702;9.826;2023-01-25T03:36:42;1.90;99.90
20141;DHT22;10231;47.702;9.826;2023-01-25T03:39:08;1.80;99.90
20141;DHT22;10231;47.702;9.826;2023-01-25T03:41:33;1.80;99.90
20141;DHT22;10231;47.702;9.826;2023-01-25T03:43:59;1.80;99.90
20141;DHT22;10231;47.702;9.826;2023-01-25T03:46:24;1.80;99.90
20141;DHT22;10231;47.702;9.826;2023-01-25T03:48:50;1.80;99.90
20141;DHT22;10231;47.702;9.826;2023-01-25T03:51:15;1.80;99.90
20141;DHT22;10231;47.702;9.826;2023-01-25T03:53:41;1.90;99.90
20141;DHT22;10231;47.702;9.826;2023-01-25T03:56:09;1.90;99.90
20141;DHT22;10231;47.702;9.826;2023-01-25T03:58:36;1.90;99.90
20141;DHT22;10231;47.702;9.826;2023-01-25T04:01:03;1.90;99.90
20141;DHT22;10231;47.702;9.826;2023-01-25T04:03:30;1.90;99.90
20141;DHT22;10231;47.702;9.826;2023-01-25T04:05:56;1.90;99.90
20141;DHT22;10231;47.702;9.826;2023-01-25T04:08:23;1.90;99.90
20141;DHT22;10231;47.702;9.826;2023-01-25T04:10:53;1.90;99.90
20141;DHT22;10231;47.702;9.826;2023-01-25T04:13:20;1.90;99.90
20141;DHT22;10231;47.702;9.826;2023-01-25T04:15:46;1.90;99.90
20141;DHT22;10231;47.702;9.826;2023-01-25T04:18:12;1.90;99.90
20141;DHT22;10231;47.702;9.826;2023-01-25T04:20:37;1.90;99.90
20141;DHT22;10231;47.702;9.826;2023-01-25T04:23:03;1.90;99.90
20141;DHT22;10231;47.702;9.826;2023-01-25T04:25:31;2.00;99.90
20141;DHT22;10231;47.702;9.826;2023-01-25T04:27:56;1.90;99.90
20141;DHT22;10231;47.702;9.826;2023-01-25T04:30:22;1.90;99.90
20141;DHT22;10231;47.702;9.826;2023-01-25T04:32:48;1.90;99.90
20141;DHT22;10231;47.702;9.826;2023-01-25T04:35:13;1.90;99.90
20141;DHT22;10231;47.702;9.826;2023-01-25T04:37:39;1.90;99.90
20141;DHT22;10231;47.702;9.826;2023-01-25T04:40:05;1.90;99.90
20141;DHT22;10231;47.702;9.826;2023-01-25T04:42:31;1.90;99.90
20141;DHT22;10231;47.702;9.826;2023-01-25T04:44:56;1.80;99.90
20141;DHT22;10231;47.702;9.826;2023-01-25T04:47:22;1.80;99.90
20141;DHT22;10231;47.702;9.826;2023-01-25T04:49:48;1.90;99.90
20141;DHT22;10231;47.702;9.826;2023-01-25T04:52:13;1.90;99.90
20141;DHT22;10231;47.702;9.826;2023-01-25T04:54:39;1.80;99.90
20141;DHT22;10231;47.702;9.826;2023-01-25T04:57:04;1.80;99.90
20141;DHT22;10231;47.702;9.826;2023-01-25T04:59:30;1.80;99.90
20141;DHT22;10231;47.702;9.826;2023-01-25T05:01:55;1.80;99.90
20141;DHT22;10231;47.702;9.826;2023-01-25T05:04:21;1.80;99.90
20141;DHT22;10231;47.702;9.826;2023-01-25T05:06:46;1.80;99.90
20141;DHT22;10231;47.702;9.826;2023-01-25T05:09:12;1.80;99.90
20141;DHT22;10231;47.702;9.826;2023-01-25T05:11:37;1.80;99.90
20141;DHT22;10231;47.702;9.826;2023-01-25T05:14:03;1.80;99.90
20141;DHT22;10231;47.702;9.826;2023-01-25T05:16:28;1.80;99.90
20141;DHT22;10231;47.702;9.826;2023-01-25T05:18:55;1.80;99.90
20141;DHT22;10231;47.702;9.826;2023-01-25T05:21:20;1.80;99.90
20141;DHT22;10231;47.702;9.826;2023-01-25T05:24:05;1.80;99.90
20141;DHT22;10231;47.702;9.826;2023-01-25T05:26:30;1.80;99.90
20141;DHT22;10231;47.702;9.826;2023-01-25T05:29:14;1.80;99.90
20141;DHT22;10231;47.702;9.826;2023-01-25T05:31:40;1.80;99.90
20141;DHT22;10231;47.702;9.826;2023-01-25T05:34:06;1.80;99.90
20141;DHT22;10231;47.702;9.826;2023-01-25T05:36:32;1.80;99.90
20141;DHT22;10231;47.702;9.826;2023-01-25T05:38:58;1.80;99.90
20141;DHT22;10231;47.702;9.826;2023-01-25T05:41:23;1.80;99.90
20141;DHT22;10231;47.702;9.826;2023-01-25T05:43:49;1.80;99.90
20141;DHT22;10231;47.702;9.826;2023-01-25T05:46:14;1.80;99.90
20141;DHT22;10231;47.702;9.826;2023-01-25T05:48:40;1.70;99.90
20141;DHT22;10231;47.702;9.826;2023-01-25T05:51:05;1.70;99.90
20141;DHT22;10231;47.702;9.826;2023-01-25T05:53:31;1.70;99.90
20141;DHT22;10231;47.702;9.826;2023-01-25T05:56:04;1.70;99.90
20141;DHT22;10231;47.702;9.826;2023-01-25T05:58:29;1.60;99.90
20141;DHT22;10231;47.702;9.826;2023-01-25T06:00:55;1.60;99.90
20141;DHT22;10231;47.702;9.826;2023-01-25T06:03:20;1.60;99.90
20141;DHT22;10231;47.702;9.826;2023-01-25T06:05:46;1.60;99.90
20141;DHT22;10231;47.702;9.826;2023-01-25T06:08:11;1.70;99.90
20141;DHT22;10231;47.702;9.826;2023-01-25T06:10:37;1.60;99.90
20141;DHT22;10231;47.702;9.826;2023-01-25T06:13:02;1.70;99.90
20141;DHT22;10231;47.702;9.826;2023-01-25T06:15:28;1.60;99.90
20141;DHT22;10231;47.702;9.826;2023-01-25T06:17:55;1.70;99.90
20141;DHT22;10231;47.702;9.826;2023-01-25T06:20:20;1.70;99.90
20141;DHT22;10231;47.702;9.826;2023-01-25T06:22:50;1.70;99.90
20141;DHT22;10231;47.702;9.826;2023-01-25T06:25:16;1.70;99.90
20141;DHT22;10231;47.702;9.826;2023-01-25T06:27:41;1.70;99.90
20141;DHT22;10231;47.702;9.826;2023-01-25T06:30:08;1.70;99.90
20141;DHT22;10231;47.702;9.826;2023-01-25T06:32:33;1.70;99.90
20141;DHT22;10231;47.702;9.826;2023-01-25T06:34:59;1.70;99.90
20141;DHT22;10231;47.702;9.826;2023-01-25T06:37:24;1.70;99.90
20141;DHT22;10231;47.702;9.826;2023-01-25T06:39:50;1.70;99.90
20141;DHT22;10231;47.702;9.826;2023-01-25T06:42:16;1.70;99.90
20141;DHT22;10231;47.702;9.826;2023-01-25T06:44:41;1.70;99.90
20141;DHT22;10231;47.702;9.826;2023-01-25T06:47:10;1.70;99.90
20141;DHT22;10231;47.702;9.826;2023-01-25T06:49:37;1.70;99.90
20141;DHT22;10231;47.702;9.826;2023-01-25T06:52:02;1.70;99.90
20141;DHT22;10231;47.702;9.826;2023-01-25T06:54:28;1.70;99.90
20141;DHT22;10231;47.702;9.826;2023-01-25T06:56:54;1.60;99.90
20141;DHT22;10231;47.702;9.826;2023-01-25T06:59:19;1.60;99.90
20141;DHT22;10231;47.702;9.826;2023-01-25T07:01:45;1.60;99.90
20141;DHT22;10231;47.702;9.826;2023-01-25T07:04:10;1.60;99.90
20141;DHT22;10231;47.702;9.826;2023-01-25T07:06:37;1.60;99.90
20141;DHT22;10231;47.702;9.826;2023-01-25T07:09:08;1.60;99.90
20141;DHT22;10231;47.702;9.826;2023-01-25T07:11:34;1.60;99.90
20141;DHT22;10231;47.702;9.826;2023-01-25T07:14:00;1.60;99.90
20141;DHT22;10231;47.702;9.826;2023-01-25T07:16:26;1.60;99.90
20141;DHT22;10231;47.702;9.826;2023-01-25T07:18:51;1.60;99.90
20141;DHT22;10231;47.702;9.826;2023-01-25T07:21:22;1.60;99.90
20141;DHT22;10231;47.702;9.826;2023-01-25T07:23:51;1.60;99.90
20141;DHT22;10231;47.702;9.826;2023-01-25T07:26:22;1.50;99.90
20141;DHT22;10231;47.702;9.826;2023-01-25T07:28:48;1.60;99.90
20141;DHT22;10231;47.702;9.826;2023-01-25T07:31:15;1.60;99.90
20141;DHT22;10231;47.702;9.826;2023-01-25T07:33:41;1.60;99.90
20141;DHT22;10231;47.702;9.826;2023-01-25T07:36:09;1.60;99.90
20141;DHT22;10231;47.702;9.826;2023-01-25T07:38:35;1.70;99.90
20141;DHT22;10231;47.702;9.826;2023-01-25T07:41:01;1.60;99.90
20141;DHT22;10231;47.702;9.826;2023-01-25T07:43:27;1.70;99.90
20141;DHT22;10231;47.702;9.826;2023-01-25T07:45:58;1.60;99.90
20141;DHT22;10231;47.702;9.826;2023-01-25T07:48:24;1.60;99.90
20141;DHT22;10231;47.702;9.826;2023-01-25T07:50:50;1.60;99.90
20141;DHT22;10231;47.702;9.826;2023-01-25T07:53:39;1.60;99.90
20141;DHT22;10231;47.702;9.826;2023-01-25T07:56:06;1.60;99.90
20141;DHT22;10231;47.702;9.826;2023-01-25T07:58:32;1.60;99.90
20141;DHT22;10231;47.702;9.826;2023-01-25T08:01:04;1.70;99.90
20141;DHT22;10231;47.702;9.826;2023-01-25T08:03:30;1.70;99.90
20141;DHT22;10231;47.702;9.826;2023-01-25T08:05:55;1.70;99.90
20141;DHT22;10231;47.702;9.826;2023-01-25T08:08:21;1.80;99.90
20141;DHT22;10231;47.702;9.826;2023-01-25T08:10:46;1.80;99.90
20141;DHT22;10231;47.702;9.826;2023-01-25T08:13:12;1.80;99.90
20141;DHT22;10231;47.702;9.826;2023-01-25T08:15:37;1.80;99.90
20141;DHT22;10231;47.702;9.826;2023-01-25T08:18:03;1.80;99.90
20141;DHT22;10231;47.702;9.826;2023-01-25T08:20:29;1.80;99.90
20141;DHT22;10231;47.702;9.826;2023-01-25T08:22:54;1.70;99.90
20141;DHT22;10231;47.702;9.826;2023-01-25T08:25:20;1.70;99.90
20141;DHT22;10231;47.702;9.826;2023-01-25T08:27:45;1.70;99.90
20141;DHT22;10231;47.702;9.826;2023-01-25T08:30:11;1.70;99.90
20141;DHT22;10231;47.702;9.826;2023-01-25T08:32:37;1.70;99.90
20141;DHT22;10231;47.702;9.826;2023-01-25T08:35:03;1.70;99.90
20141;DHT22;10231;47.702;9.826;2023-01-25T08:37:29;1.70;99.90
20141;DHT22;10231;47.702;9.826;2023-01-25T08:39:55;1.70;99.90
20141;DHT22;10231;47.702;9.826;2023-01-25T08:42:24;1.70;99.90
20141;DHT22;10231;47.702;9.826;2023-01-25T08:44:50;1.70;99.90
20141;DHT22;10231;47.702;9.826;2023-01-25T08:47:15;1.70;99.90
20141;DHT22;10231;47.702;9.826;2023-01-25T08:49:41;1.70;99.90
20141;DHT22;10231;47.702;9.826;2023-01-25T08:52:06;1.70;99.90
20141;DHT22;10231;47.702;9.826;2023-01-25T08:54:32;1.70;99.90
20141;DHT22;10231;47.702;9.826;2023-01-25T08:56:57;1.70;99.90
20141;DHT22;10231;47.702;9.826;2023-01-25T08:59:23;1.70;99.90
20141;DHT22;10231;47.702;9.826;2023-01-25T09:01:49;1.70;99.90
20141;DHT22;10231;47.702;9.826;2023-01-25T09:04:14;1.70;99.90
20141;DHT22;10231;47.702;9.826;2023-01-25T09:06:40;1.80;99.90
20141;DHT22;10231;47.702;9.826;2023-01-25T09:09:05;1.70;99.90
20141;DHT22;10231;47.702;9.826;2023-01-25T09:11:33;1.80;99.90
20141;DHT22;10231;47.702;9.826;2023-01-25T09:13:59;1.80;99.90
20141;DHT22;10231;47.702;9.826;2023-01-25T09:16:25;1.80;99.90
20141;DHT22;10231;47.702;9.826;2023-01-25T09:18:55;1.80;99.90
20141;DHT22;10231;47.702;9.826;2023-01-25T09:21:21;1.80;99.90
20141;DHT22;10231;47.702;9.826;2023-01-25T09:23:48;1.80;99.90
20141;DHT22;10231;47.702;9.826;2023-01-25T09:26:14;1.80;99.90
20141;DHT22;10231;47.702;9.826;2023-01-25T09:28:41;1.80;99.90
20141;DHT22;10231;47.702;9.826;2023-01-25T09:31:08;1.80;99.90
20141;DHT22;10231;47.702;9.826;2023-01-25T09:33:36;1.80;99.90
20141;DHT22;10231;47.702;9.826;2023-01-25T09:36:03;1.80;99.90
20141;DHT22;10231;47.702;9.826;2023-01-25T09:38:28;1.90;99.90
20141;DHT22;10231;47.702;9.826;2023-01-25T09:41:10;1.80;99.90
20141;DHT22;10231;47.702;9.826;2023-01-25T09:52:25;1.90;99.90
20141;DHT22;10231;47.702;9.826;2023-01-25T09:54:52;1.90;99.90
20141;DHT22;10231;47.702;9.826;2023-01-25T09:59:59;2.00;99.90
20141;DHT22;10231;47.702;9.826;2023-01-25T10:02:42;2.00;99.90
20141;DHT22;10231;47.702;9.826;2023-01-25T10:05:19;2.00;99.90
20141;DHT22;10231;47.702;9.826;2023-01-25T10:08:20;2.00;99.90
20141;DHT22;10231;47.702;9.826;2023-01-25T10:11:03;1.90;99.90
20141;DHT22;10231;47.702;9.826;2023-01-25T10:13:29;1.90;99.90
20141;DHT22;10231;47.702;9.826;2023-01-25T10:16:01;1.90;99.90
20141;DHT22;10231;47.702;9.826;2023-01-25T10:18:30;2.00;99.90
20141;DHT22;10231;47.702;9.826;2023-01-25T10:21:06;2.00;99.90
20141;DHT22;10231;47.702;9.826;2023-01-25T10:26:27;1.90;99.90
20141;DHT22;10231;47.702;9.826;2023-01-25T10:29:14;2.00;99.90
20141;DHT22;10231;47.702;9.826;2023-01-25T10:34:20;1.90;99.90
20141;DHT22;10231;47.702;9.826;2023-01-25T10:36:49;1.90;99.90
20141;DHT22;10231;47.702;9.826;2023-01-25T10:39:18;1.90;99.90
20141;DHT22;10231;47.702;9.826;2023-01-25T10:42:32;1.90;99.90
20141;DHT22;10231;47.702;9.826;2023-01-25T10:44:36;1.90;99.90
20141;DHT22;10231;47.702;9.826;2023-01-25T10:47:22;1.80;99.90
20141;DHT22;10231;47.702;9.826;2023-01-25T10:52:29;1.90;99.90
20141;DHT22;10231;47.702;9.826;2023-01-25T10:55:16;1.90;99.90
20141;DHT22;10231;47.702;9.826;2023-01-25T10:57:43;1.90;99.90
20141;DHT22;10231;47.702;9.826;2023-01-25T11:00:49;2.00;99.90
20141;DHT22;10231;47.702;9.826;2023-01-25T11:03:21;2.00;99.90
20141;DHT22;10231;47.702;9.826;2023-01-25T11:05:56;1.90;99.90
20141;DHT22;10231;47.702;9.826;2023-01-25T11:08:32;1.90;99.90
20141;DHT22;10231;47.702;9.826;2023-01-25T11:10:58;1.90;99.90
20141;DHT22;10231;47.702;9.826;2023-01-25T11:13:31;1.90;99.90
20141;DHT22;10231;47.702;9.826;2023-01-25T11:18:30;2.00;99.90
20141;DHT22;10231;47.702;9.826;2023-01-25T11:21:23;2.00;99.90
20141;DHT22;10231;47.702;9.826;2023-01-25T11:26:26;2.00;99.90
20141;DHT22;10231;47.702;9.826;2023-01-25T11:31:37;2.00;99.90
20141;DHT22;10231;47.702;9.826;2023-01-25T11:34:09;2.00;99.90
20141;DHT22;10231;47.702;9.826;2023-01-25T11:37:06;2.00;99.90
20141;DHT22;10231;47.702;9.826;2023-01-25T11:48:13;2.10;99.90
20141;DHT22;10231;47.702;9.826;2023-01-25T11:50:49;2.10;99.90
20141;DHT22;10231;47.702;9.826;2023-01-25T11:56:10;2.10;99.90
20141;DHT22;10231;47.702;9.826;2023-01-25T12:02:31;2.10;99.90
20141;DHT22;10231;47.702;9.826;2023-01-25T12:13:27;2.10;99.90
20141;DHT22;10231;47.702;9.826;2023-01-25T12:16:07;2.20;99.90
20141;DHT22;10231;47.702;9.826;2023-01-25T12:21:43;2.10;99.90
20141;DHT22;10231;47.702;9.826;2023-01-25T12:24:36;2.20;99.90
20141;DHT22;10231;47.702;9.826;2023-01-25T12:29:35;2.20;99.90
20141;DHT22;10231;47.702;9.826;2023-01-25T12:34:58;2.10;99.90
20141;DHT22;10231;47.702;9.826;2023-01-25T12:37:31;2.10;99.90
20141;DHT22;10231;47.702;9.826;2023-01-25T12:40:48;2.20;99.90
20141;DHT22;10231;47.702;9.826;2023-01-25T12:43:23;2.10;99.90
20141;DHT22;10231;47.702;9.826;2023-01-25T12:45:51;2.20;99.90
20141;DHT22;10231;47.702;9.826;2023-01-25T12:48:31;2.20;99.90
20141;DHT22;10231;47.702;9.826;2023-01-25T12:51:00;2.20;99.90
20141;DHT22;10231;47.702;9.826;2023-01-25T12:53:36;2.20;99.90
20141;DHT22;10231;47.702;9.826;2023-01-25T12:56:07;2.30;99.90
20141;DHT22;10231;47.702;9.826;2023-01-25T12:59:02;2.30;99.90
20141;DHT22;10231;47.702;9.826;2023-01-25T13:01:42;2.20;99.90
20141;DHT22;10231;47.702;9.826;2023-01-25T13:04:43;2.20;99.90
20141;DHT22;10231;47.702;9.826;2023-01-25T13:12:21;2.20;99.90
20141;DHT22;10231;47.702;9.826;2023-01-25T13:14:48;2.10;99.90
20141;DHT22;10231;47.702;9.826;2023-01-25T13:17:20;2.20;99.90
20141;DHT22;10231;47.702;9.826;2023-01-25T13:19:47;2.20;99.90
20141;DHT22;10231;47.702;9.826;2023-01-25T13:25:18;2.10;99.90
20141;DHT22;10231;47.702;9.826;2023-01-25T13:27:44;2.10;99.90
20141;DHT22;10231;47.702;9.826;2023-01-25T13:30:31;2.00;99.90
20141;DHT22;10231;47.702;9.826;2023-01-25T13:33:05;2.00;99.90
20141;DHT22;10231;47.702;9.826;2023-01-25T13:35:37;2.00;99.90
20141;DHT22;10231;47.702;9.826;2023-01-25T13:40:39;2.10;99.90
20141;DHT22;10231;47.702;9.826;2023-01-25T13:43:18;2.10;99.90
20141;DHT22;10231;47.702;9.826;2023-01-25T13:45:46;2.20;99.90
20141;DHT22;10231;47.702;9.826;2023-01-25T13:48:24;2.10;99.90
20141;DHT22;10231;47.702;9.826;2023-01-25T13:50:52;2.10;99.90
20141;DHT22;10231;47.702;9.826;2023-01-25T13:53:23;2.10;99.90
20141;DHT22;10231;47.702;9.826;2023-01-25T13:55:54;2.10;99.90
20141;DHT22;10231;47.702;9.826;2023-01-25T13:58:22;2.10;99.90
20141;DHT22;10231;47.702;9.826;2023-01-25T14:03:31;2.10;99.90
20141;DHT22;10231;47.702;9.826;2023-01-25T14:05:58;2.20;99.90
20141;DHT22;10231;47.702;9.826;2023-01-25T14:08:27;2.20;99.90
20141;DHT22;10231;47.702;9.826;2023-01-25T14:10:53;2.10;99.90
20141;DHT22;10231;47.702;9.826;2023-01-25T14:13:19;2.10;99.90
20141;DHT22;10231;47.702;9.826;2023-01-25T14:15:59;2.10;99.90
20141;DHT22;10231;47.702;9.826;2023-01-25T14:18:31;2.10;99.90
20141;DHT22;10231;47.702;9.826;2023-01-25T14:21:13;2.10;99.90
20141;DHT22;10231;47.702;9.826;2023-01-25T14:23:39;2.10;99.90
20141;DHT22;10231;47.702;9.826;2023-01-25T14:26:25;2.10;99.90
20141;DHT22;10231;47.702;9.826;2023-01-25T14:28:54;2.10;99.90
20141;DHT22;10231;47.702;9.826;2023-01-25T14:31:24;2.00;99.90
20141;DHT22;10231;47.702;9.826;2023-01-25T14:33:51;2.00;99.90
20141;DHT22;10231;47.702;9.826;2023-01-25T14:36:26;2.00;99.90
20141;DHT22;10231;47.702;9.826;2023-01-25T14:38:52;2.00;99.90
20141;DHT22;10231;47.702;9.826;2023-01-25T14:41:32;2.10;99.90
20141;DHT22;10231;47.702;9.826;2023-01-25T14:44:04;2.10;99.90
20141;DHT22;10231;47.702;9.826;2023-01-25T14:46:33;2.10;99.90
20141;DHT22;10231;47.702;9.826;2023-01-25T14:49:18;2.00;99.90
20141;DHT22;10231;47.702;9.826;2023-01-25T14:54:26;2.00;99.90
20141;DHT22;10231;47.702;9.826;2023-01-25T14:57:02;2.00;99.90
20141;DHT22;10231;47.702;9.826;2023-01-25T15:04:57;1.90;99.90
20141;DHT22;10231;47.702;9.826;2023-01-25T15:07:53;2.00;99.90
20141;DHT22;10231;47.702;9.826;2023-01-25T15:15:48;2.00;99.90
20141;DHT22;10231;47.702;9.826;2023-01-25T15:21:06;2.00;99.90
20141;DHT22;10231;47.702;9.826;2023-01-25T15:23:32;2.00;99.90
20141;DHT22;10231;47.702;9.826;2023-01-25T15:25:59;2.00;99.90
20141;DHT22;10231;47.702;9.826;2023-01-25T15:28:27;1.90;99.90
20141;DHT22;10231;47.702;9.826;2023-01-25T15:30:54;1.90;99.90
20141;DHT22;10231;47.702;9.826;2023-01-25T15:33:26;1.90;99.90
20141;DHT22;10231;47.702;9.826;2023-01-25T15:35:53;1.90;99.90
20141;DHT22;10231;47.702;9.826;2023-01-25T15:38:19;1.90;99.90
20141;DHT22;10231;47.702;9.826;2023-01-25T15:40:46;1.90;99.90
20141;DHT22;10231;47.702;9.826;2023-01-25T15:43:13;2.00;99.90
20141;DHT22;10231;47.702;9.826;2023-01-25T15:45:43;1.90;99.90
20141;DHT22;10231;47.702;9.826;2023-01-25T15:48:15;2.00;99.90
20141;DHT22;10231;47.702;9.826;2023-01-25T15:50:41;1.90;99.90
20141;DHT22;10231;47.702;9.826;2023-01-25T15:53:17;1.90;99.90
20141;DHT22;10231;47.702;9.826;2023-01-25T15:55:45;1.90;99.90
20141;DHT22;10231;47.702;9.826;2023-01-25T15:58:25;1.90;99.90
20141;DHT22;10231;47.702;9.826;2023-01-25T16:00:51;1.90;99.90
20141;DHT22;10231;47.702;9.826;2023-01-25T16:03:17;1.90;99.90
20141;DHT22;10231;47.702;9.826;2023-01-25T16:05:58;1.90;99.90
20141;DHT22;10231;47.702;9.826;2023-01-25T16:08:24;1.80;99.90
20141;DHT22;10231;47.702;9.826;2023-01-25T16:10:50;1.80;99.90
20141;DHT22;10231;47.702;9.826;2023-01-25T16:13:16;1.70;99.90
20141;DHT22;10231;47.702;9.826;2023-01-25T16:15:41;1.70;99.90
20141;DHT22;10231;47.702;9.826;2023-01-25T16:18:14;1.80;99.90
20141;DHT22;10231;47.702;9.826;2023-01-25T16:20:40;1.70;99.90
20141;DHT22;10231;47.702;9.826;2023-01-25T16:23:05;1.70;99.90
20141;DHT22;10231;47.702;9.826;2023-01-25T16:25:32;1.70;99.90
20141;DHT22;10231;47.702;9.826;2023-01-25T16:27:58;1.70;99.90
20141;DHT22;10231;47.702;9.826;2023-01-25T16:30:24;1.70;99.90
20141;DHT22;10231;47.702;9.826;2023-01-25T16:32:52;1.60;99.90
20141;DHT22;10231;47.702;9.826;2023-01-25T16:35:18;1.60;99.90
20141;DHT22;10231;47.702;9.826;2023-01-25T16:37:44;1.70;99.90
20141;DHT22;10231;47.702;9.826;2023-01-25T16:40:27;1.70;99.90
20141;DHT22;10231;47.702;9.826;2023-01-25T16:42:54;1.60;99.90
20141;DHT22;10231;47.702;9.826;2023-01-25T16:45:20;1.70;99.90
20141;DHT22;10231;47.702;9.826;2023-01-25T16:47:48;1.70;99.90
20141;DHT22;10231;47.702;9.826;2023-01-25T16:50:16;1.70;99.90
20141;DHT22;10231;47.702;9.826;2023-01-25T16:52:42;1.70;99.90
20141;DHT22;10231;47.702;9.826;2023-01-25T16:55:10;1.60;99.90
20141;DHT22;10231;47.702;9.826;2023-01-25T16:57:41;1.60;99.90
20141;DHT22;10231;47.702;9.826;2023-01-25T17:00:12;1.60;99.90
20141;DHT22;10231;47.702;9.826;2023-01-25T17:02:42;1.70;99.90
20141;DHT22;10231;47.702;9.826;2023-01-25T17:05:09;1.60;99.90
20141;DHT22;10231;47.702;9.826;2023-01-25T17:07:35;1.60;99.90
20141;DHT22;10231;47.702;9.826;2023-01-25T17:10:01;1.60;99.90
20141;DHT22;10231;47.702;9.826;2023-01-25T17:12:28;1.60;99.90
20141;DHT22;10231;47.702;9.826;2023-01-25T17:14:54;1.70;99.90
20141;DHT22;10231;47.702;9.826;2023-01-25T17:17:19;1.60;99.90
20141;DHT22;10231;47.702;9.826;2023-01-25T17:19:47;1.60;99.90
20141;DHT22;10231;47.702;9.826;2023-01-25T17:22:13;1.60;99.90
20141;DHT22;10231;47.702;9.826;2023-01-25T17:24:38;1.60;99.90
20141;DHT22;10231;47.702;9.826;2023-01-25T17:27:04;1.60;99.90
20141;DHT22;10231;47.702;9.826;2023-01-25T17:29:29;1.60;99.90
20141;DHT22;10231;47.702;9.826;2023-01-25T17:31:55;1.50;99.90
20141;DHT22;10231;47.702;9.826;2023-01-25T17:34:21;1.50;99.90
20141;DHT22;10231;47.702;9.826;2023-01-25T17:36:48;1.50;99.90
20141;DHT22;10231;47.702;9.826;2023-01-25T17:39:15;1.50;99.90
20141;DHT22;10231;47.702;9.826;2023-01-25T17:41:46;1.60;99.90
20141;DHT22;10231;47.702;9.826;2023-01-25T17:44:16;1.60;99.90